LFJL/ETZ METAR and TAF weather

Enter ICAO airport designator
Station Type Date Time Source
LFJL METAR 2020/09/19 17:30 UTC NOAA

LFJL 191730Z AUTO 12005KT CAVOK 24/13 Q1015 NOSIG


Station Type Date Time Source
LFJL Decoded METAR 2020/09/19 17:30 UTC NOAA

Metz-Nancy-Lorraine, France (LFJL) 48-59N 006-15E
Sep 19, 2020 - 01:30 PM EDT / 2020.09.19 1730 UTC
Wind: from the ESE (120 degrees) at 6 MPH (5 KT):0
Visibility: greater than 7 mile(s):0
Temperature: 75 F (24 C)
Dew Point: 55 F (13 C)
Relative Humidity: 50%
Pressure (altimeter): 29.97 in. Hg (1015 hPa)
ob: LFJL 191730Z AUTO 12005KT CAVOK 24/13 Q1015 NOSIG
cycle: 17

Station Type Date Time Source
LFJL TAF 2020/09/19 18:21 UTC NOAA

TAF LFJL 191700Z 1918/2018 06008KT CAVOK

Example: see airport list